Time;durP1;ratioP1;P1;durP2;ratioP2;P2;SDS_P1;SDS_P2;PMS_P1;PMS_P2;Temp;Humidity;BMP_temperature;BMP_pressure;BME280_temperature;BME280_humidity;BME280_pressure;Samples;Min_cycle;Max_cycle;Signal;HPM_P1;HPM_P2
2023/10/30 00:00:47;;;;;;;3.10;1.67;;;12.00;99.90;;;;;;5061587;28;20135;-62
2023/10/30 00:03:16;;;;;;;6.53;1.42;;;12.00;99.90;;;;;;5067833;28;20044;-62
2023/10/30 00:05:42;;;;;;;4.47;1.77;;;12.00;99.90;;;;;;5068390;28;20522;-62
2023/10/30 00:08:07;;;;;;;4.90;1.90;;;12.00;99.90;;;;;;5070055;28;20036;-63
2023/10/30 00:10:36;;;;;;;5.50;1.92;;;12.00;99.90;;;;;;5069997;28;20151;-63
2023/10/30 00:13:02;;;;;;;4.03;1.35;;;12.00;99.90;;;;;;5072387;28;20078;-63
2023/10/30 00:15:28;;;;;;;3.95;1.65;;;12.00;99.90;;;;;;5067382;28;20036;-63
2023/10/30 00:17:54;;;;;;;2.35;1.45;;;12.00;99.90;;;;;;5071575;28;20464;-63
2023/10/30 00:20:20;;;;;;;4.07;1.20;;;12.00;99.90;;;;;;5070846;28;20038;-63
2023/10/30 00:22:45;;;;;;;3.10;1.52;;;12.00;99.90;;;;;;5068949;28;20035;-62
2023/10/30 00:25:11;;;;;;;4.80;1.35;;;12.00;99.90;;;;;;5035544;28;20044;-63
2023/10/30 00:27:37;;;;;;;4.75;1.77;;;12.00;99.90;;;;;;5068704;28;20032;-62
2023/10/30 00:30:03;;;;;;;3.67;1.35;;;12.00;99.90;;;;;;5068876;28;20036;-63
2023/10/30 00:32:30;;;;;;;3.95;1.33;;;12.00;99.90;;;;;;5067722;28;20090;-62
2023/10/30 00:34:56;;;;;;;5.93;1.90;;;12.00;99.90;;;;;;5069417;28;20048;-64
2023/10/30 00:37:23;;;;;;;5.72;1.30;;;12.00;99.90;;;;;;5068283;28;20470;-62
2023/10/30 00:39:49;;;;;;;4.82;1.63;;;12.00;99.90;;;;;;5068189;28;20128;-62
2023/10/30 00:42:14;;;;;;;3.40;1.35;;;12.00;99.90;;;;;;5068220;28;20115;-62
2023/10/30 00:44:40;;;;;;;3.17;1.33;;;12.00;99.90;;;;;;5067891;28;20088;-63
2023/10/30 00:47:06;;;;;;;5.60;1.50;;;12.00;99.90;;;;;;5068819;28;20124;-63
2023/10/30 00:49:32;;;;;;;4.15;1.30;;;12.00;99.90;;;;;;5050024;28;20039;-63
2023/10/30 00:51:58;;;;;;;3.78;1.38;;;11.90;99.90;;;;;;5058024;28;20090;-63
2023/10/30 00:54:23;;;;;;;5.45;1.33;;;11.90;99.90;;;;;;5049378;28;20102;-63
2023/10/30 00:56:49;;;;;;;4.95;1.45;;;11.90;99.90;;;;;;5066212;28;20047;-63
2023/10/30 00:59:15;;;;;;;5.18;1.35;;;11.90;99.90;;;;;;5066322;28;20029;-63
2023/10/30 01:01:41;;;;;;;3.22;0.93;;;11.90;99.90;;;;;;5064560;28;20539;-63
2023/10/30 01:04:07;;;;;;;3.58;1.13;;;11.90;99.90;;;;;;5067515;28;20097;-63
2023/10/30 01:06:33;;;;;;;3.40;1.17;;;11.80;99.90;;;;;;5066024;28;20123;-63
2023/10/30 01:08:59;;;;;;;2.70;1.15;;;11.90;99.90;;;;;;5068006;28;20214;-63
2023/10/30 01:11:25;;;;;;;4.55;2.00;;;11.90;99.90;;;;;;5068027;28;20044;-62
2023/10/30 01:13:51;;;;;;;3.60;1.20;;;11.90;99.90;;;;;;5068306;28;20044;-63
2023/10/30 01:16:17;;;;;;;2.55;1.10;;;11.90;99.90;;;;;;5059345;28;20041;-62
2023/10/30 01:18:42;;;;;;;5.72;1.10;;;11.80;99.90;;;;;;5070063;28;20209;-67
2023/10/30 01:21:12;;;;;;;3.58;1.23;;;11.80;99.90;;;;;;5066643;28;20040;-67
2023/10/30 01:23:38;;;;;;;3.10;1.05;;;11.90;99.90;;;;;;5070570;28;20075;-63
2023/10/30 01:26:04;;;;;;;3.55;1.00;;;11.90;99.90;;;;;;5071012;28;20044;-63
2023/10/30 01:28:30;;;;;;;2.42;1.02;;;11.90;99.90;;;;;;5068964;28;20177;-63
2023/10/30 01:30:55;;;;;;;5.22;1.10;;;11.80;99.90;;;;;;5053890;28;20119;-62
2023/10/30 01:33:23;;;;;;;6.22;1.20;;;11.80;99.90;;;;;;5071299;28;20091;-62
2023/10/30 01:35:52;;;;;;;5.63;1.27;;;11.80;99.90;;;;;;5072266;28;20045;-63
2023/10/30 01:38:17;;;;;;;2.88;1.02;;;11.90;99.90;;;;;;5070018;28;20048;-62
2023/10/30 01:40:50;;;;;;;2.50;0.80;;;11.80;99.90;;;;;;5066661;28;20032;-62
2023/10/30 01:43:16;;;;;;;;;;;11.80;99.90;;;;;;5048652;28;20098;-62
2023/10/30 01:45:42;;;;;;;2.35;0.90;;;11.80;99.90;;;;;;5071811;28;19924;-62
2023/10/30 01:48:09;;;;;;;2.42;1.25;;;11.80;99.90;;;;;;5071643;28;20032;-62
2023/10/30 01:50:37;;;;;;;3.60;1.13;;;11.80;99.90;;;;;;5070419;28;20559;-62
2023/10/30 01:53:04;;;;;;;5.70;1.27;;;11.80;99.90;;;;;;5066649;28;20049;-62
2023/10/30 01:55:29;;;;;;;1.63;1.00;;;11.80;99.90;;;;;;5069510;28;20113;-62
2023/10/30 01:57:56;;;;;;;5.50;1.30;;;11.80;99.90;;;;;;5069599;28;20220;-62
2023/10/30 02:00:22;;;;;;;4.22;1.35;;;11.80;99.90;;;;;;5036752;28;20048;-61
2023/10/30 02:02:50;;;;;;;5.72;1.25;;;11.80;99.90;;;;;;5071926;28;20033;-63
2023/10/30 02:05:16;;;;;;;1.65;0.80;;;11.80;99.90;;;;;;5069990;28;20521;-62
2023/10/30 02:07:42;;;;;;;1.67;0.95;;;11.80;99.90;;;;;;5071290;28;20262;-62
2023/10/30 02:10:08;;;;;;;2.42;1.20;;;11.80;99.90;;;;;;5071311;28;20091;-62
2023/10/30 02:12:36;;;;;;;3.13;0.88;;;11.80;99.90;;;;;;5071981;28;20033;-62
2023/10/30 02:15:03;;;;;;;2.25;1.10;;;11.80;99.90;;;;;;5066218;28;20091;-62
2023/10/30 02:17:29;;;;;;;3.03;1.08;;;11.80;99.90;;;;;;5065980;28;20045;-62
2023/10/30 02:19:55;;;;;;;2.00;0.73;;;11.80;99.90;;;;;;5071045;28;20364;-62
2023/10/30 02:22:20;;;;;;;2.55;1.25;;;11.80;99.90;;;;;;5070783;28;20644;-62
2023/10/30 02:24:46;;;;;;;3.25;1.00;;;11.80;99.90;;;;;;5070851;28;20048;-63
2023/10/30 02:27:12;;;;;;;2.13;0.73;;;11.80;99.90;;;;;;5069948;28;20048;-63
2023/10/30 02:29:37;;;;;;;2.95;0.65;;;11.80;99.90;;;;;;5069415;28;20048;-63
2023/10/30 02:32:03;;;;;;;1.13;0.68;;;11.80;99.90;;;;;;5063427;28;20095;-63
2023/10/30 02:34:29;;;;;;;2.00;1.00;;;11.70;99.90;;;;;;5050870;28;20048;-62
2023/10/30 02:36:56;;;;;;;4.05;1.10;;;11.70;99.90;;;;;;5050358;28;20576;-62
2023/10/30 02:39:22;;;;;;;1.77;0.70;;;11.70;99.90;;;;;;5048241;28;20052;-62
2023/10/30 02:41:48;;;;;;;4.15;1.00;;;11.70;99.90;;;;;;5069104;28;20540;-62
2023/10/30 02:44:14;;;;;;;0.90;0.68;;;11.70;99.90;;;;;;5049922;28;20385;-62
2023/10/30 02:46:40;;;;;;;2.13;1.08;;;11.70;99.90;;;;;;5068969;28;20044;-62
2023/10/30 02:49:06;;;;;;;2.70;0.77;;;11.70;99.90;;;;;;5052235;28;20495;-62
2023/10/30 02:51:32;;;;;;;1.70;0.88;;;11.70;99.90;;;;;;5068792;28;20040;-62
2023/10/30 02:53:57;;;;;;;1.35;0.60;;;11.70;99.90;;;;;;5067361;28;20513;-62
2023/10/30 02:56:23;;;;;;;2.15;0.82;;;11.70;99.90;;;;;;5068442;28;20040;-62
2023/10/30 02:58:49;;;;;;;2.13;0.93;;;11.60;99.90;;;;;;5068756;28;20060;-62
2023/10/30 03:01:15;;;;;;;4.88;1.23;;;11.60;99.90;;;;;;5065098;28;20040;-62
2023/10/30 03:03:40;;;;;;;1.98;0.93;;;11.60;99.90;;;;;;5069737;28;20036;-63
2023/10/30 03:06:06;;;;;;;4.45;1.20;;;11.60;99.90;;;;;;5062777;28;20048;-62
2023/10/30 03:08:32;;;;;;;4.70;1.77;;;11.60;99.90;;;;;;5069645;28;20048;-64
2023/10/30 03:10:58;;;;;;;4.78;2.00;;;11.60;99.90;;;;;;5052755;28;20043;-62
2023/10/30 03:13:24;;;;;;;2.63;1.45;;;11.60;99.90;;;;;;5065335;28;20510;-61
2023/10/30 03:15:50;;;;;;;7.28;2.05;;;11.60;99.90;;;;;;5068830;28;20036;-61
2023/10/30 03:18:15;;;;;;;4.85;1.40;;;11.60;99.90;;;;;;5069446;28;20040;-62
2023/10/30 03:20:41;;;;;;;2.80;1.35;;;11.50;99.90;;;;;;5064673;28;20503;-62
2023/10/30 03:23:07;;;;;;;4.68;1.73;;;11.50;99.90;;;;;;5069964;28;20041;-63
2023/10/30 03:25:33;;;;;;;3.35;1.48;;;11.50;99.90;;;;;;5045771;28;20132;-62
2023/10/30 03:27:59;;;;;;;3.95;1.60;;;11.50;99.90;;;;;;5069293;28;20097;-63
2023/10/30 03:30:25;;;;;;;3.28;1.90;;;11.50;99.90;;;;;;5050847;28;20135;-63
2023/10/30 03:32:50;;;;;;;4.13;2.00;;;11.50;99.90;;;;;;5052228;28;20024;-63
2023/10/30 03:35:16;;;;;;;4.03;1.73;;;11.50;99.90;;;;;;5069797;28;20041;-63
2023/10/30 03:37:42;;;;;;;4.03;2.22;;;11.50;99.90;;;;;;5067019;28;20044;-62
2023/10/30 03:40:08;;;;;;;5.57;1.85;;;11.50;99.90;;;;;;5051915;28;20040;-62
2023/10/30 03:42:34;;;;;;;5.75;2.00;;;11.40;99.90;;;;;;5069840;28;20079;-64
2023/10/30 03:45:00;;;;;;;9.15;2.78;;;11.40;99.90;;;;;;5050732;28;20072;-62
2023/10/30 03:47:26;;;;;;;4.07;2.20;;;11.40;99.90;;;;;;5064154;28;20040;-62
2023/10/30 03:49:51;;;;;;;4.93;1.95;;;11.40;99.90;;;;;;5070016;28;20115;-62
2023/10/30 03:52:17;;;;;;;6.72;2.90;;;11.40;99.90;;;;;;5067594;28;20345;-62
2023/10/30 03:54:43;;;;;;;6.70;1.73;;;11.40;99.90;;;;;;5068856;28;20537;-63
2023/10/30 03:57:08;;;;;;;3.65;2.13;;;11.40;99.90;;;;;;5044598;28;20454;-63
2023/10/30 03:59:35;;;;;;;8.40;2.53;;;11.40;99.90;;;;;;5067405;28;20036;-62
2023/10/30 04:02:01;;;;;;;5.18;2.35;;;11.40;99.90;;;;;;5061333;28;20045;-62
2023/10/30 04:04:27;;;;;;;3.47;1.83;;;11.40;99.90;;;;;;5064237;28;20041;-63
2023/10/30 04:06:53;;;;;;;7.90;2.55;;;11.30;99.90;;;;;;5068686;28;20070;-63
2023/10/30 04:09:19;;;;;;;6.43;2.40;;;11.30;99.90;;;;;;5067803;28;20029;-63
2023/10/30 04:11:46;;;;;;;8.30;3.42;;;;;;;;;;5068711;28;20068;-63
2023/10/30 04:14:12;;;;;;;5.63;1.83;;;;;;;;;;5065426;28;20052;-63
2023/10/30 04:16:38;;;;;;;9.48;2.78;;;11.30;99.90;;;;;;5046034;28;20457;-63
2023/10/30 04:19:04;;;;;;;7.93;2.10;;;11.30;99.90;;;;;;5067979;28;20322;-63
2023/10/30 04:21:29;;;;;;;13.93;2.00;;;11.30;99.90;;;;;;5068482;28;20044;-63
2023/10/30 04:23:55;;;;;;;3.85;1.85;;;11.30;99.90;;;;;;5068692;28;20452;-62
2023/10/30 04:26:21;;;;;;;5.82;2.42;;;11.30;99.90;;;;;;5065899;28;20037;-62
2023/10/30 04:28:47;;;;;;;11.98;3.10;;;11.30;99.90;;;;;;5066749;28;20167;-62
2023/10/30 04:31:12;;;;;;;11.35;3.15;;;11.30;99.90;;;;;;5069133;28;20042;-62
2023/10/30 04:33:39;;;;;;;8.65;2.25;;;11.30;99.90;;;;;;5068610;28;20039;-63
2023/10/30 04:36:05;;;;;;;8.07;2.22;;;11.30;99.90;;;;;;5068771;28;20036;-63
2023/10/30 04:38:32;;;;;;;6.40;2.38;;;11.30;99.90;;;;;;5048697;28;20028;-63
2023/10/30 04:40:58;;;;;;;5.22;2.13;;;11.20;99.90;;;;;;5068635;28;20503;-63
2023/10/30 04:43:24;;;;;;;5.60;2.38;;;11.20;99.90;;;;;;5050041;28;20037;-63
2023/10/30 04:45:49;;;;;;;8.52;2.65;;;11.20;99.90;;;;;;5049873;28;20036;-62
2023/10/30 04:48:15;;;;;;;6.32;1.90;;;11.20;99.90;;;;;;5069147;28;20029;-62
2023/10/30 04:50:41;;;;;;;5.10;1.92;;;11.20;99.90;;;;;;5067155;28;20036;-62
2023/10/30 04:53:07;;;;;;;6.38;2.63;;;11.20;99.90;;;;;;5050878;28;20028;-62
2023/10/30 04:55:34;;;;;;;9.07;2.80;;;11.20;99.90;;;;;;5069083;28;20470;-62
2023/10/30 04:58:00;;;;;;;5.63;2.42;;;11.20;99.90;;;;;;5068898;28;20067;-62
2023/10/30 05:00:26;;;;;;;4.43;2.10;;;11.20;99.90;;;;;;5048020;28;20480;-62
2023/10/30 05:02:52;;;;;;;8.13;2.80;;;11.20;99.90;;;;;;5068591;28;20035;-63
2023/10/30 05:05:18;;;;;;;6.95;2.08;;;11.20;99.90;;;;;;5066953;28;20531;-63
2023/10/30 05:07:44;;;;;;;11.40;2.35;;;11.20;99.90;;;;;;5068560;28;20423;-63
2023/10/30 05:10:12;;;;;;;8.68;2.50;;;11.20;99.90;;;;;;5068527;28;20028;-61
2023/10/30 05:12:38;;;;;;;4.70;2.10;;;11.30;99.90;;;;;;5068731;28;20047;-63
2023/10/30 05:15:08;;;;;;;6.10;2.30;;;11.30;99.90;;;;;;5061180;28;20424;-63
2023/10/30 05:17:37;;;;;;;5.07;2.13;;;11.20;99.90;;;;;;5059703;28;20041;-63
2023/10/30 05:20:03;;;;;;;7.43;2.10;;;11.20;99.90;;;;;;5062613;28;20528;-62
2023/10/30 05:22:29;;;;;;;13.63;2.83;;;;;;;;;;5071728;28;20607;-63
2023/10/30 05:24:56;;;;;;;8.20;2.42;;;;;;;;;;5058908;28;20053;-63
2023/10/30 05:27:23;;;;;;;10.50;2.55;;;11.20;99.90;;;;;;5065337;28;20064;-63
2023/10/30 05:29:48;;;;;;;5.65;1.83;;;11.30;99.90;;;;;;5059294;28;20045;-62
2023/10/30 05:32:14;;;;;;;4.32;2.10;;;11.30;99.90;;;;;;5067023;28;20094;-62
2023/10/30 05:34:40;;;;;;;6.40;2.10;;;11.20;99.90;;;;;;5064227;28;20102;-62
2023/10/30 05:37:07;;;;;;;8.93;2.70;;;11.20;99.90;;;;;;5065202;28;20105;-62
2023/10/30 05:39:33;;;;;;;7.97;3.55;;;11.20;99.90;;;;;;5065524;28;20399;-64
2023/10/30 05:41:59;;;;;;;5.25;2.42;;;11.30;99.90;;;;;;5065855;28;20040;-62
2023/10/30 05:44:25;;;;;;;6.65;3.35;;;11.20;99.90;;;;;;5063019;28;20121;-62
2023/10/30 05:46:50;;;;;;;8.65;2.58;;;11.20;99.90;;;;;;5061920;28;20468;-62
2023/10/30 05:49:16;;;;;;;4.13;2.00;;;11.20;99.90;;;;;;5064627;28;20951;-62
2023/10/30 05:51:42;;;;;;;7.90;2.78;;;11.20;99.90;;;;;;5047775;28;20107;-62
2023/10/30 05:54:08;;;;;;;7.38;3.00;;;11.20;99.90;;;;;;5047033;28;20100;-63
2023/10/30 05:56:33;;;;;;;5.60;2.38;;;11.20;99.90;;;;;;5042440;28;20049;-63
2023/10/30 05:58:59;;;;;;;4.65;1.80;;;11.20;99.90;;;;;;5063711;28;20044;-63
2023/10/30 06:01:25;;;;;;;5.95;2.08;;;11.20;99.90;;;;;;5047791;28;20052;-62
2023/10/30 06:03:51;;;;;;;6.25;2.10;;;11.20;99.90;;;;;;5064239;28;20153;-63
2023/10/30 06:06:16;;;;;;;7.38;2.88;;;11.20;99.90;;;;;;5069513;28;20414;-62
2023/10/30 06:08:42;;;;;;;9.98;2.28;;;11.20;99.90;;;;;;5068864;28;20124;-63
2023/10/30 06:11:08;;;;;;;7.97;2.85;;;11.20;99.90;;;;;;5043902;28;20369;-63
2023/10/30 06:13:33;;;;;;;7.88;2.45;;;11.20;99.90;;;;;;5065937;28;20123;-63
2023/10/30 06:15:59;;;;;;;4.45;2.33;;;11.20;99.90;;;;;;5065829;28;20050;-62
2023/10/30 06:18:25;;;;;;;6.20;2.35;;;11.10;99.90;;;;;;5047329;28;20044;-63
2023/10/30 06:20:51;;;;;;;3.90;1.67;;;11.20;99.90;;;;;;5059278;28;20360;-62
2023/10/30 06:23:17;;;;;;;4.60;2.50;;;11.10;99.90;;;;;;5065040;28;20059;-63
2023/10/30 06:25:44;;;;;;;10.63;2.65;;;11.10;99.90;;;;;;5047924;28;20484;-61
2023/10/30 06:28:14;;;;;;;5.72;2.05;;;11.10;99.90;;;;;;5064617;28;20119;-62
2023/10/30 06:30:41;;;;;;;6.32;2.58;;;11.10;99.90;;;;;;5067187;28;20141;-62
2023/10/30 06:33:07;;;;;;;8.02;2.53;;;11.10;99.90;;;;;;5068361;28;20131;-63
2023/10/30 06:35:32;;;;;;;10.07;3.50;;;11.10;99.90;;;;;;5069954;28;20123;-63
2023/10/30 06:37:58;;;;;;;11.00;3.22;;;11.10;99.90;;;;;;5069694;28;20044;-63
2023/10/30 06:40:24;;;;;;;5.53;2.78;;;11.10;99.90;;;;;;5069698;28;20047;-63
2023/10/30 06:42:50;;;;;;;5.80;2.95;;;11.10;99.90;;;;;;5061551;28;20040;-63
2023/10/30 06:45:15;;;;;;;5.13;2.58;;;11.10;99.90;;;;;;5069059;28;20048;-63
2023/10/30 06:47:41;;;;;;;8.10;2.47;;;11.10;99.90;;;;;;5072224;28;20082;-62
2023/10/30 06:50:07;;;;;;;5.90;2.80;;;11.10;99.90;;;;;;5052432;28;20076;-62
2023/10/30 06:52:33;;;;;;;4.40;2.00;;;11.10;99.90;;;;;;5045391;28;20146;-62
2023/10/30 06:54:59;;;;;;;11.23;2.67;;;11.00;99.90;;;;;;5070236;28;20059;-62
2023/10/30 06:57:25;;;;;;;5.43;1.88;;;11.10;99.90;;;;;;5065500;28;20117;-62
2023/10/30 06:59:53;;;;;;;5.25;2.05;;;11.00;99.90;;;;;;5066020;28;20500;-63
2023/10/30 07:02:19;;;;;;;10.20;2.60;;;11.00;99.90;;;;;;5063833;28;20479;-62
2023/10/30 07:04:44;;;;;;;6.05;2.22;;;11.00;99.90;;;;;;5065909;28;20297;-62
2023/10/30 07:07:10;;;;;;;8.35;2.40;;;11.10;99.90;;;;;;5063694;28;20048;-62
2023/10/30 07:09:36;;;;;;;3.42;1.95;;;11.10;99.90;;;;;;5064980;28;20048;-62
2023/10/30 07:12:05;;;;;;;11.32;2.63;;;;;;;;;;5064355;28;20051;-62
2023/10/30 07:14:32;;;;;;;9.02;2.75;;;;;;;;;;5065912;28;20032;-63
2023/10/30 07:16:59;;;;;;;9.10;1.95;;;;;;;;;;5057964;28;20056;-62
2023/10/30 07:19:25;;;;;;;5.80;1.90;;;;;;;;;;5065516;28;20040;-62
2023/10/30 07:21:51;;;;;;;7.65;2.35;;;;;;;;;;5060983;28;20037;-63
2023/10/30 07:24:17;;;;;;;6.00;2.70;;;;;;;;;;5067102;28;20067;-62
2023/10/30 07:26:43;;;;;;;8.02;2.30;;;;;;;;;;5064038;28;20496;-62
2023/10/30 07:29:11;;;;;;;6.22;2.50;;;;;;;;;;5053591;28;20044;-62
2023/10/30 07:31:37;;;;;;;5.40;2.30;;;;;;;;;;5060162;28;20403;-63
2023/10/30 07:34:03;;;;;;;5.55;2.33;;;;;;;;;;5064682;28;20044;-63
2023/10/30 07:36:30;;;;;;;9.35;3.00;;;;;;;;;;5051856;28;20060;-63
2023/10/30 07:38:56;;;;;;;8.73;2.25;;;;;;;;;;5060041;28;20041;-63
2023/10/30 07:41:22;;;;;;;10.68;2.92;;;;;;;;;;5069299;28;20087;-63
2023/10/30 07:43:48;;;;;;;7.40;2.72;;;;;;;;;;5063026;28;20408;-63
2023/10/30 07:46:14;;;;;;;5.05;2.60;;;;;;;;;;5069310;28;20082;-63
2023/10/30 07:48:40;;;;;;;6.10;2.55;;;;;;;;;;5067992;28;20112;-63
2023/10/30 07:51:06;;;;;;;6.25;2.05;;;;;;;;;;5067384;28;20068;-63
2023/10/30 07:53:32;;;;;;;4.63;2.05;;;;;;;;;;5034924;28;20039;-63
2023/10/30 07:55:59;;;;;;;8.57;2.28;;;;;;;;;;5069103;28;20058;-63
2023/10/30 07:58:25;;;;;;;3.78;1.85;;;;;;;;;;5068938;28;20582;-63
2023/10/30 08:00:52;;;;;;;7.70;2.35;;;;;;;;;;5067368;28;20102;-63
2023/10/30 08:03:18;;;;;;;6.75;2.35;;;;;;;;;;5040620;28;20052;-63
2023/10/30 08:05:44;;;;;;;13.95;3.15;;;;;;;;;;5068095;28;20047;-62
2023/10/30 08:08:10;;;;;;;8.20;2.55;;;;;;;;;;5050429;28;20443;-63
2023/10/30 08:10:37;;;;;;;5.82;2.40;;;;;;;;;;5069248;28;20044;-63
2023/10/30 08:13:03;;;;;;;10.95;3.05;;;;;;;;;;5072273;28;20082;-62
2023/10/30 08:15:29;;;;;;;6.63;2.13;;;;;;;;;;5068784;28;20105;-63
2023/10/30 08:17:55;;;;;;;8.00;2.55;;;;;;;;;;5063855;28;20493;-63
2023/10/30 08:20:21;;;;;;;6.72;2.40;;;;;;;;;;5066198;28;20428;-63
2023/10/30 08:22:47;;;;;;;8.48;3.25;;;;;;;;;;5068460;28;20221;-63
2023/10/30 08:25:14;;;;;;;10.43;3.28;;;;;;;;;;5066510;28;20079;-63
2023/10/30 08:27:40;;;;;;;7.55;2.10;;;;;;;;;;5066803;28;20043;-63
2023/10/30 08:30:06;;;;;;;5.82;2.42;;;;;;;;;;5067010;28;20266;-63
2023/10/30 08:32:32;;;;;;;6.88;2.53;;;;;;;;;;5067110;28;20094;-62
2023/10/30 08:35:02;;;;;;;5.90;2.65;;;;;;;;;;5066980;28;20495;-63
2023/10/30 08:37:28;;;;;;;5.20;2.30;;;;;;;;;;5067933;28;20040;-62
2023/10/30 08:39:54;;;;;;;8.60;2.42;;;;;;;;;;5068546;28;20372;-62
2023/10/30 08:42:20;;;;;;;12.15;2.35;;;;;;;;;;5067945;28;20531;-62
2023/10/30 08:44:47;;;;;;;7.22;2.50;;;;;;;;;;5065714;28;20501;-62
2023/10/30 08:47:14;;;;;;;8.30;3.38;;;;;;;;;;5063061;28;20137;-62
2023/10/30 08:49:41;;;;;;;7.15;2.90;;;;;;;;;;5067458;28;20041;-62
2023/10/30 08:52:07;;;;;;;7.60;2.40;;;;;;;;;;5019193;28;20168;-64
2023/10/30 08:54:32;;;;;;;9.07;3.80;;;12.00;99.90;;;;;;5049143;28;20472;-62
2023/10/30 08:56:58;;;;;;;9.75;2.83;;;12.10;99.90;;;;;;5052794;28;20050;-62
2023/10/30 08:59:24;;;;;;;9.18;2.78;;;12.20;99.90;;;;;;5066726;28;20051;-63
2023/10/30 09:01:50;;;;;;;5.50;2.28;;;12.20;99.90;;;;;;5067341;28;20047;-62
2023/10/30 09:04:16;;;;;;;7.40;2.60;;;12.30;99.90;;;;;;5067975;28;20076;-63
2023/10/30 09:06:42;;;;;;;6.63;2.65;;;12.40;99.90;;;;;;5068211;28;20484;-63
2023/10/30 09:09:08;;;;;;;11.68;2.78;;;12.50;99.90;;;;;;5068448;28;20029;-63
2023/10/30 09:11:34;;;;;;;9.77;2.88;;;12.60;99.90;;;;;;5069386;28;20037;-63
2023/10/30 09:14:00;;;;;;;10.73;2.65;;;12.70;99.90;;;;;;5062465;28;20507;-64
2023/10/30 09:16:26;;;;;;;7.05;2.50;;;12.90;99.90;;;;;;5058977;28;20515;-63
2023/10/30 09:18:52;;;;;;;9.23;2.47;;;13.00;99.90;;;;;;5067344;28;20218;-62
2023/10/30 09:21:20;;;;;;;3.65;2.00;;;13.10;99.90;;;;;;5068908;28;20036;-64
2023/10/30 09:23:46;;;;;;;5.57;2.42;;;13.30;99.90;;;;;;5068904;28;20040;-63
2023/10/30 09:26:13;;;;;;;9.52;2.63;;;13.30;99.90;;;;;;5050606;28;20076;-63
2023/10/30 09:28:39;;;;;;;9.90;3.35;;;13.50;99.90;;;;;;5048841;28;20040;-63
2023/10/30 09:31:06;;;;;;;9.93;2.97;;;13.50;99.90;;;;;;5050360;28;20037;-63
2023/10/30 09:33:32;;;;;;;7.65;3.38;;;13.60;99.90;;;;;;5069185;28;20492;-61
2023/10/30 09:35:58;;;;;;;5.82;2.50;;;13.70;99.90;;;;;;5069495;28;20048;-63
2023/10/30 09:38:25;;;;;;;8.02;2.53;;;13.80;99.90;;;;;;5063187;28;20127;-62
2023/10/30 09:40:59;;;;;;;9.25;2.95;;;13.90;99.90;;;;;;5054369;28;20040;-63
2023/10/30 09:43:28;;;;;;;6.15;3.03;;;13.90;99.90;;;;;;5065926;28;20473;-62
2023/10/30 09:45:58;;;;;;;5.18;2.70;;;14.00;99.90;;;;;;5067504;28;20519;-63
2023/10/30 09:48:25;;;;;;;6.75;2.42;;;14.10;99.90;;;;;;5071102;28;20398;-65
2023/10/30 09:50:51;;;;;;;9.65;2.80;;;14.20;99.90;;;;;;5050030;28;20040;-62
2023/10/30 09:53:19;;;;;;;7.60;3.15;;;14.30;99.90;;;;;;5056022;28;20039;-63
2023/10/30 09:55:47;;;;;;;6.38;2.95;;;14.50;99.90;;;;;;5050622;28;20083;-63
2023/10/30 09:58:15;;;;;;;5.95;2.42;;;;;;;;;;5037798;28;20075;-63
2023/10/30 10:00:41;;;;;;;8.23;3.20;;;;;;;;;;5050851;28;20377;-63
2023/10/30 10:03:09;;;;;;;8.18;3.33;;;;;;;;;;5061541;28;20049;-63
2023/10/30 10:05:36;;;;;;;6.65;2.35;;;;;;;;;;5066201;28;20041;-63
2023/10/30 10:08:02;;;;;;;10.05;3.08;;;;;;;;;;5062452;28;20439;-63
2023/10/30 10:10:27;;;;;;;6.80;2.78;;;14.60;99.90;;;;;;5054977;28;20071;-63
2023/10/30 10:12:55;;;;;;;6.00;2.30;;;15.00;99.90;;;;;;5062983;28;20067;-60
2023/10/30 10:15:21;;;;;;;5.53;2.55;;;15.10;99.90;;;;;;5066030;28;20044;-62
2023/10/30 10:17:51;;;;;;;8.02;2.78;;;;;;;;;;5059689;28;20416;-62
2023/10/30 10:20:21;;;;;;;6.97;2.35;;;;;;;;;;5061798;28;20088;-62
2023/10/30 10:22:48;;;;;;;8.02;3.60;;;;;;;;;;5063635;28;20181;-63
2023/10/30 10:25:18;;;;;;;11.05;3.60;;;;;;;;;;5064060;28;20064;-63
2023/10/30 10:27:44;;;;;;;7.63;2.50;;;;;;;;;;5061472;28;20126;-63
2023/10/30 10:30:10;;;;;;;7.72;2.05;;;;;;;;;;5046466;28;20048;-63
2023/10/30 10:32:37;;;;;;;8.27;2.55;;;15.20;99.90;;;;;;5067266;28;20144;-63
2023/10/30 10:35:06;;;;;;;5.75;2.53;;;;;;;;;;5070274;28;20047;-63
2023/10/30 10:37:35;;;;;;;10.38;3.35;;;;;;;;;;5051752;28;20102;-62
2023/10/30 10:40:05;;;;;;;7.25;2.38;;;;;;;;;;5052482;28;20111;-62
2023/10/30 10:42:32;;;;;;;5.95;2.20;;;;;;;;;;5072680;28;20055;-63
2023/10/30 10:44:59;;;;;;;6.05;2.38;;;;;;;;;;5064905;28;20053;-63
2023/10/30 10:47:26;;;;;;;8.90;2.97;;;;;;;;;;5064960;28;20131;-63
2023/10/30 10:49:52;;;;;;;6.13;2.85;;;;;;;;;;5063098;28;20066;-63
2023/10/30 10:52:19;;;;;;;11.93;3.08;;;;;;;;;;5058473;28;20043;-63
2023/10/30 10:54:46;;;;;;;6.88;2.47;;;;;;;;;;5067716;28;20043;-63
2023/10/30 10:57:17;;;;;;;5.07;2.28;;;16.00;99.90;;;;;;5066085;28;20380;-62
2023/10/30 10:59:45;;;;;;;6.78;2.60;;;16.40;99.90;;;;;;5061896;28;20105;-62
2023/10/30 11:02:16;;;;;;;6.72;2.50;;;;;;;;;;5069965;28;20123;-62
2023/10/30 11:04:43;;;;;;;9.82;2.70;;;;;;;;;;5062852;28;20052;-62
2023/10/30 11:07:12;;;;;;;10.20;3.08;;;;;;;;;;5050532;28;20086;-62
2023/10/30 11:09:41;;;;;;;9.88;2.00;;;;;;;;;;5069171;28;20044;-62
2023/10/30 11:12:41;;;;;;;7.13;2.58;;;16.50;99.90;;;;;;5068399;28;20040;-62
2023/10/30 11:15:16;;;;;;;5.70;2.85;;;17.20;99.90;;;;;;5070124;28;20461;-64
2023/10/30 11:18:23;;;;;;;6.43;2.60;;;17.30;99.90;;;;;;5069758;28;20111;-63
2023/10/30 11:21:13;;;;;;;9.15;2.45;;;17.40;99.90;;;;;;5061378;28;20555;-62
2023/10/30 11:23:46;;;;;;;5.43;1.80;;;;;;;;;;5067126;28;20495;-62
2023/10/30 11:26:33;;;;;;;8.45;3.15;;;;;;;;;;5068580;28;20029;-61
2023/10/30 11:28:59;;;;;;;9.77;2.38;;;17.60;99.90;;;;;;5067773;28;20079;-61
2023/10/30 11:31:29;;;;;;;3.67;2.15;;;18.20;99.90;;;;;;5067183;28;20036;-61
2023/10/30 11:34:15;;;;;;;8.25;2.53;;;;;;;;;;5070445;28;20064;-63
2023/10/30 11:36:41;;;;;;;8.05;2.67;;;18.30;99.90;;;;;;5069139;28;20075;-62
2023/10/30 11:39:09;;;;;;;6.60;2.65;;;18.50;99.90;;;;;;5001286;28;20032;-62
2023/10/30 11:41:40;;;;;;;8.20;2.15;;;18.60;99.90;;;;;;5066620;28;20045;-62
2023/10/30 11:44:15;;;;;;;6.95;2.42;;;18.70;99.90;;;;;;5067637;28;20044;-62
2023/10/30 11:46:42;;;;;;;8.25;2.67;;;;;;;;;;5058300;28;20497;-62
2023/10/30 11:49:12;;;;;;;5.55;2.60;;;18.90;99.90;;;;;;5068092;28;20071;-63
2023/10/30 11:51:49;;;;;;;10.10;2.92;;;19.00;99.90;;;;;;5047544;28;20037;-64
2023/10/30 11:54:33;;;;;;;10.05;3.53;;;19.00;99.90;;;;;;5054407;28;20110;-63
2023/10/30 11:57:02;;;;;;;7.07;2.13;;;19.10;99.90;;;;;;5063186;28;20052;-62
2023/10/30 11:59:29;;;;;;;13.70;3.22;;;19.20;99.90;;;;;;5063362;28;20106;-64
2023/10/30 12:01:58;;;;;;;8.25;2.78;;;19.30;99.90;;;;;;5047584;28;20045;-64
2023/10/30 12:04:26;;;;;;;5.28;3.08;;;;;;;;;;5059610;28;20045;-62
2023/10/30 12:06:52;;;;;;;6.78;3.08;;;19.40;99.90;;;;;;5067974;28;20028;-62
2023/10/30 12:09:19;;;;;;;8.60;2.83;;;;;;;;;;5066653;28;20081;-62
2023/10/30 12:11:45;;;;;;;13.38;1.95;;;;;;;;;;5057580;28;20039;-63
2023/10/30 12:14:15;;;;;;;5.50;2.63;;;;;;;;;;5050260;28;20090;-63
2023/10/30 12:16:50;;;;;;;8.45;2.08;;;;;;;;;;5066443;28;20051;-63
2023/10/30 12:19:20;;;;;;;10.32;3.22;;;;;;;;;;5056333;28;20516;-63
2023/10/30 12:21:46;;;;;;;13.57;3.67;;;;;;;;;;5047303;28;20433;-62
2023/10/30 12:24:15;;;;;;;7.32;3.38;;;;;;;;;;5067196;28;20252;-62
2023/10/30 12:26:42;;;;;;;5.30;2.63;;;;;;;;;;5064512;28;20500;-63
2023/10/30 12:29:08;;;;;;;6.57;2.10;;;;;;;;;;5059992;28;20135;-62
2023/10/30 12:31:37;;;;;;;5.45;2.15;;;;;;;;;;5033406;28;20492;-61
2023/10/30 12:34:18;;;;;;;10.13;2.65;;;;;;;;;;5060707;28;20075;-62
2023/10/30 12:36:44;;;;;;;6.80;3.20;;;;;;;;;;5011504;28;20044;-62
2023/10/30 12:39:20;;;;;;;8.25;3.00;;;;;;;;;;5043962;28;20036;-63
2023/10/30 12:41:47;;;;;;;5.28;2.58;;;;;;;;;;5061080;28;20067;-62
2023/10/30 12:44:17;;;;;;;7.22;2.50;;;;;;;;;;5066877;28;20123;-63
2023/10/30 12:46:44;;;;;;;6.15;1.75;;;;;;;;;;5067815;28;20054;-63
2023/10/30 12:49:10;;;;;;;4.50;2.60;;;;;;;;;;5065141;28;20109;-63
2023/10/30 12:51:36;;;;;;;9.48;3.08;;;;;;;;;;5057655;28;20736;-63
2023/10/30 12:54:02;;;;;;;7.03;2.28;;;;;;;;;;5047931;28;20092;-63
2023/10/30 12:56:29;;;;;;;16.20;4.30;;;;;;;;;;5058683;28;20041;-63
2023/10/30 12:58:55;;;;;;;6.57;2.58;;;;;;;;;;5056168;28;20472;-63
2023/10/30 13:01:21;;;;;;;6.47;2.35;;;;;;;;;;5060126;28;20044;-63
2023/10/30 13:03:47;;;;;;;6.80;2.85;;;;;;;;;;5048766;28;20044;-64
2023/10/30 13:06:13;;;;;;;5.65;2.13;;;;;;;;;;5068181;28;20500;-61
2023/10/30 13:08:39;;;;;;;9.45;2.70;;;;;;;;;;5067875;28;20063;-63
2023/10/30 13:11:06;;;;;;;7.53;2.72;;;;;;;;;;5050439;28;20048;-62
2023/10/30 13:13:32;;;;;;;6.60;2.80;;;;;;;;;;5067920;28;20040;-62
2023/10/30 13:15:58;;;;;;;7.30;2.60;;;;;;;;;;5060360;28;20093;-62
2023/10/30 13:18:24;;;;;;;7.30;2.97;;;;;;;;;;5067405;28;20541;-63